Time;durP1;ratioP1;P1;durP2;ratioP2;P2;SDS_P1;SDS_P2;PMS_P1;PMS_P2;Temp;Humidity;BMP_temperature;BMP_pressure;BME280_temperature;BME280_humidity;BME280_pressure;Samples;Min_cycle;Max_cycle;Signal;HPM_P1;HPM_P2
2023/07/30 08:59:10;;;;;;;17.77;4.97;;;;;;;16.71;100.00;100911.47;5067983;28;21005;-72
2023/07/30 09:01:39;;;;;;;24.60;4.63;;;;;;;16.78;100.00;100906.59;5030040;28;20401;-72
2023/07/30 09:04:06;;;;;;;21.52;5.00;;;;;;;16.83;100.00;100920.31;5007408;28;20044;-73
2023/07/30 09:06:32;;;;;;;18.95;4.55;;;;;;;16.89;100.00;100920.34;5013755;28;20064;-73
2023/07/30 09:08:58;;;;;;;17.20;4.40;;;;;;;16.95;100.00;100916.53;5008617;28;20117;-73
2023/07/30 09:11:27;;;;;;;16.33;3.85;;;;;;;17.01;100.00;100920.94;5008456;28;20125;-72
2023/07/30 09:13:55;;;;;;;18.42;4.35;;;;;;;17.13;100.00;100910.59;5010763;28;20034;-76
2023/07/30 09:16:24;;;;;;;18.85;4.57;;;;;;;17.29;100.00;100916.97;5028605;28;20041;-74
2023/07/30 09:18:50;;;;;;;11.65;3.53;;;;;;;17.48;100.00;100920.03;5029569;28;20465;-74
2023/07/30 09:21:15;;;;;;;18.08;4.03;;;;;;;17.64;100.00;100914.59;5028400;28;20080;-74
2023/07/30 09:23:42;;;;;;;16.05;4.25;;;;;;;17.76;100.00;100909.69;5021263;28;20034;-74
2023/07/30 09:26:08;;;;;;;14.85;3.42;;;;;;;17.85;100.00;100905.31;5011782;28;20034;-75
2023/07/30 09:28:33;;;;;;;13.15;3.45;;;;;;;17.96;100.00;100911.63;5003388;28;20037;-74
2023/07/30 09:31:03;;;;;;;12.98;3.20;;;;;;;17.96;100.00;100910.81;5017400;28;20041;-73
2023/07/30 09:33:28;;;;;;;15.85;3.70;;;;;;;17.99;100.00;100910.28;5009943;28;20033;-73
2023/07/30 09:35:55;;;;;;;11.70;3.17;;;;;;;17.99;100.00;100921.22;5009998;28;20034;-79
2023/07/30 09:38:20;;;;;;;13.43;3.95;;;;;;;18.03;100.00;100909.47;5008293;28;20030;-78
2023/07/30 09:40:49;;;;;;;14.48;3.85;;;;;;;18.11;100.00;100907.28;5009122;28;20030;-75
2023/07/30 09:43:15;;;;;;;12.82;3.45;;;;;;;18.12;100.00;100917.94;5006014;28;20489;-75
2023/07/30 09:45:40;;;;;;;9.98;3.05;;;;;;;18.15;100.00;100922.88;5005120;28;20038;-74
2023/07/30 09:48:06;;;;;;;13.18;3.35;;;;;;;18.13;100.00;100926.97;4991254;28;20038;-74
2023/07/30 09:50:34;;;;;;;10.93;3.30;;;;;;;18.14;100.00;100929.44;5004623;28;20513;-76
2023/07/30 09:53:03;;;;;;;15.48;3.53;;;;;;;18.16;100.00;100920.94;5009592;28;20381;-78
2023/07/30 09:55:29;;;;;;;13.35;3.00;;;;;;;18.23;100.00;100925.06;5008238;28;20030;-79
2023/07/30 09:57:55;;;;;;;13.50;3.10;;;;;;;18.31;100.00;100937.38;5006614;28;20120;-75
2023/07/30 10:00:20;;;;;;;12.65;3.30;;;;;;;18.32;100.00;100935.47;5023463;28;20069;-75
2023/07/30 10:02:48;;;;;;;13.02;3.30;;;;;;;18.32;100.00;100938.22;5005998;28;20047;-75
2023/07/30 10:05:23;;;;;;;10.77;2.85;;;;;;;18.34;100.00;100942.34;5025104;28;20033;-74
2023/07/30 10:07:57;;;;;;;9.60;3.03;;;;;;;18.22;100.00;100937.13;5028449;28;20095;-74
2023/07/30 10:10:24;;;;;;;11.63;3.00;;;;;;;18.21;100.00;100937.41;5014783;28;20117;-74
2023/07/30 10:12:52;;;;;;;12.65;3.05;;;;;;;18.19;100.00;100942.31;5014847;28;20048;-74
2023/07/30 10:15:21;;;;;;;11.30;3.13;;;;;;;18.17;100.00;100945.31;5006388;28;20041;-77
2023/07/30 10:17:46;;;;;;;11.82;2.95;;;;;;;18.19;100.00;100945.91;4993465;28;20038;-75
2023/07/30 10:20:29;;;;;;;8.38;2.80;;;;;;;18.26;100.00;100951.09;4997693;28;20045;-77
2023/07/30 10:22:56;;;;;;;12.57;2.58;;;;;;;18.44;100.00;100946.97;4991243;28;20027;-75
2023/07/30 10:25:45;;;;;;;11.73;3.33;;;;;;;18.55;100.00;100956.00;4982616;28;20443;-75
2023/07/30 10:28:32;;;;;;;13.45;3.50;;;;;;;18.63;100.00;100949.13;4994300;28;20072;-73
2023/07/30 10:31:01;;;;;;;8.82;3.03;;;;;;;18.64;100.00;100954.31;4983235;28;20085;-78
2023/07/30 10:33:55;;;;;;;11.23;3.17;;;;;;;18.68;100.00;100954.63;4975243;28;20027;-79
2023/07/30 10:36:45;;;;;;;8.52;2.53;;;;;;;18.68;98.62;100962.84;4986959;28;20053;-81
2023/07/30 10:39:18;;;;;;;8.30;2.63;;;;;;;18.61;93.17;100985.03;4991071;28;20525;-73
2023/07/30 10:41:51;;;;;;;7.65;2.30;;;;;;;18.59;89.59;100979.00;4976070;28;20055;-80
2023/07/30 10:44:42;;;;;;;10.50;2.53;;;;;;;18.57;100.00;100989.44;4986182;28;20100;-75
2023/07/30 10:47:08;;;;;;;8.10;2.78;;;;;;;18.49;100.00;100968.88;4981182;28;20138;-74
2023/07/30 10:49:38;;;;;;;8.10;2.38;;;;;;;18.38;100.00;100989.16;4986306;28;20125;-74
2023/07/30 10:52:03;;;;;;;10.30;2.55;;;;;;;18.31;100.00;100980.41;4975574;28;20074;-77
2023/07/30 10:54:36;;;;;;;9.15;2.70;;;;;;;18.23;100.00;100971.63;4995633;28;20058;-76
2023/07/30 10:57:02;;;;;;;10.18;2.72;;;;;;;18.17;100.00;100969.16;4983450;28;20131;-76
2023/07/30 10:59:36;;;;;;;8.13;2.47;;;;;;;18.17;100.00;100972.72;4975702;28;20112;-73
2023/07/30 11:02:01;;;;;;;7.25;2.38;;;;;;;18.20;100.00;100963.13;4990876;28;20065;-74
2023/07/30 11:04:27;;;;;;;8.75;2.40;;;;;;;18.19;100.00;100973.28;5013588;28;20026;-78
2023/07/30 11:06:52;;;;;;;6.28;2.30;;;;;;;18.18;100.00;100979.84;5014422;28;20030;-79
2023/07/30 11:09:22;;;;;;;10.02;2.53;;;;;;;18.11;100.00;100979.28;5014917;28;20378;-76
2023/07/30 11:11:49;;;;;;;8.35;2.60;;;;;;;18.05;100.00;100992.13;5014638;28;20026;-77
2023/07/30 11:14:22;;;;;;;9.27;2.40;;;;;;;17.97;100.00;100998.16;5013535;28;20113;-74
2023/07/30 11:16:53;;;;;;;9.60;2.42;;;;;;;18.02;100.00;100994.63;5012911;28;20061;-78
2023/07/30 11:19:19;;;;;;;8.68;2.40;;;;;;;18.01;100.00;100991.06;5012372;28;20076;-77
2023/07/30 11:21:46;;;;;;;8.23;2.58;;;;;;;18.03;100.00;100993.53;5012484;28;20053;-75
2023/07/30 11:24:11;;;;;;;9.43;2.65;;;;;;;18.05;100.00;100991.34;5014751;28;20065;-76
2023/07/30 11:26:36;;;;;;;8.82;2.47;;;;;;;18.19;100.00;100994.34;5012908;28;20061;-76
2023/07/30 11:29:16;;;;;;;8.82;2.25;;;;;;;18.44;100.00;101001.75;5019047;28;20116;-76
2023/07/30 11:31:46;;;;;;;8.18;2.30;;;;;;;18.72;100.00;100996.81;4998805;28;20030;-78
2023/07/30 11:34:14;;;;;;;8.32;2.10;;;;;;;18.92;91.84;101001.47;5012324;28;20040;-76
2023/07/30 11:36:40;;;;;;;8.00;2.20;;;;;;;18.90;83.80;101000.91;5012694;28;20117;-72
2023/07/30 11:39:07;;;;;;;7.68;2.30;;;;;;;18.90;83.38;101017.38;4994417;28;20041;-79
2023/07/30 11:41:33;;;;;;;8.63;2.25;;;;;;;18.88;81.77;101012.16;4994313;28;20429;-78
2023/07/30 11:43:59;;;;;;;10.35;2.10;;;;;;;18.86;81.71;101008.88;4994307;28;20034;-75
2023/07/30 11:46:24;;;;;;;6.53;2.30;;;;;;;18.87;82.20;101015.19;5010397;28;20635;-81
2023/07/30 11:48:52;;;;;;;7.65;2.20;;;;;;;18.94;84.83;101015.72;5014284;28;20060;-75
2023/07/30 11:51:26;;;;;;;9.25;2.65;;;;;;;19.10;92.98;101014.59;5003237;28;20030;-80
2023/07/30 11:53:56;;;;;;;6.50;1.98;;;;;;;19.22;81.24;101010.69;5009597;28;20060;-80
2023/07/30 11:56:24;;;;;;;6.22;2.30;;;;;;;19.37;81.46;101007.94;5013719;28;20030;-77
2023/07/30 11:58:51;;;;;;;7.63;2.38;;;;;;;19.60;80.18;101006.44;5013546;28;20045;-82
2023/07/30 12:01:17;;;;;;;4.07;1.65;;;;;;;19.77;74.18;101006.09;5008900;28;20108;-80
2023/07/30 12:03:43;;;;;;;6.22;2.08;;;;;;;19.78;70.08;101001.47;5014416;28;20124;-77
2023/07/30 12:06:10;;;;;;;5.60;1.85;;;;;;;19.74;68.97;101006.63;5006269;28;20117;-77
2023/07/30 12:08:35;;;;;;;5.47;1.70;;;;;;;19.60;67.46;101006.44;5004446;28;20036;-75
2023/07/30 12:11:06;;;;;;;8.10;1.88;;;;;;;19.50;68.75;101013.91;5009570;28;20030;-78
2023/07/30 12:13:31;;;;;;;7.07;1.88;;;;;;;19.44;69.31;101022.16;5027102;28;20366;-75
2023/07/30 12:15:57;;;;;;;6.53;1.95;;;;;;;19.44;71.56;101026.81;5029550;28;20049;-73
2023/07/30 12:18:23;;;;;;;8.57;1.70;;;;;;;19.46;67.60;101016.38;5013183;28;20378;-74
2023/07/30 12:20:50;;;;;;;9.75;1.98;;;;;;;19.49;66.07;101021.34;5006819;28;20026;-74
2023/07/30 12:23:16;;;;;;;6.03;1.88;;;;;;;19.47;69.25;101026.25;5001279;28;20481;-77
2023/07/30 12:25:42;;;;;;;4.75;1.80;;;;;;;19.45;67.87;101033.97;5012309;28;20084;-74
2023/07/30 12:28:07;;;;;;;7.07;1.90;;;;;;;19.44;71.26;101032.31;5013179;28;20482;-74
2023/07/30 12:30:33;;;;;;;7.82;1.75;;;;;;;19.39;70.38;101021.38;5009944;28;20039;-74
2023/07/30 12:32:58;;;;;;;4.15;1.60;;;;;;;19.44;68.19;101035.88;5023216;28;20061;-74
2023/07/30 12:35:24;;;;;;;8.82;1.88;;;;;;;19.52;66.81;101029.00;5012752;28;20034;-74
2023/07/30 12:37:49;;;;;;;7.38;1.83;;;;;;;19.72;68.75;101024.53;5012496;28;20040;-74
2023/07/30 12:40:16;;;;;;;7.00;1.88;;;;;;;20.04;70.57;101017.78;5012106;28;20113;-74
2023/07/30 12:42:41;;;;;;;5.90;1.42;;;;;;;20.31;67.64;101026.38;5005460;28;20029;-74
2023/07/30 12:45:07;;;;;;;4.70;1.70;;;;;;;20.43;68.14;101022.44;5012995;28;20030;-72
2023/07/30 12:47:35;;;;;;;7.97;1.75;;;;;;;20.26;66.85;101020.91;5004526;28;20030;-73
2023/07/30 12:50:00;;;;;;;6.80;1.80;;;;;;;20.06;67.10;101032.03;5010514;28;20030;-73
2023/07/30 12:52:25;;;;;;;6.82;1.98;;;;;;;19.90;68.03;101029.38;5028419;28;20029;-74
2023/07/30 12:54:51;;;;;;;6.80;2.10;;;;;;;19.85;68.83;101037.63;5005764;28;20026;-80
2023/07/30 12:57:16;;;;;;;10.25;1.98;;;;;;;19.76;68.49;101039.31;5025128;28;20485;-77
2023/07/30 12:59:45;;;;;;;7.57;1.95;;;;;;;19.72;66.58;101041.00;5011196;28;20465;-75
2023/07/30 13:02:10;;;;;;;9.35;2.05;;;;;;;19.66;68.66;101038.25;5009172;28;20049;-75
2023/07/30 13:04:36;;;;;;;6.22;1.88;;;;;;;19.93;68.76;101044.47;5013726;28;20431;-78
2023/07/30 13:07:02;;;;;;;5.63;1.70;;;;;;;20.06;68.26;101043.84;4998804;28;20038;-77
2023/07/30 13:09:28;;;;;;;5.60;1.60;;;;;;;19.99;65.46;101046.09;5004053;28;20026;-78
2023/07/30 13:11:53;;;;;;;6.13;1.83;;;;;;;20.18;66.70;101032.50;4992870;28;20034;-72
2023/07/30 13:14:19;;;;;;;5.45;1.67;;;;;;;20.43;63.91;101037.00;4993261;28;20077;-75
2023/07/30 13:16:44;;;;;;;6.30;1.50;;;;;;;20.60;61.95;101039.31;4992868;28;20026;-75
2023/07/30 13:19:09;;;;;;;4.47;1.20;;;;;;;20.54;58.30;101035.78;4997174;28;20070;-79
2023/07/30 13:21:35;;;;;;;3.17;1.13;;;;;;;20.40;59.30;101045.81;5005357;28;20058;-79
2023/07/30 13:24:00;;;;;;;5.40;1.80;;;;;;;20.26;58.72;101051.16;5009363;28;20579;-78
2023/07/30 13:26:25;;;;;;;4.93;1.40;;;;;;;20.24;60.33;101045.09;4992762;28;20109;-77
2023/07/30 13:28:50;;;;;;;3.72;1.10;;;;;;;20.24;58.39;101047.03;5002258;28;20030;-75
2023/07/30 13:31:16;;;;;;;3.58;1.20;;;;;;;20.51;59.75;101041.06;4996233;28;20070;-79
2023/07/30 13:33:42;;;;;;;5.22;1.35;;;;;;;20.67;58.35;101050.84;4996223;28;20039;-78
2023/07/30 13:36:08;;;;;;;6.13;1.40;;;;;;;20.75;57.13;101035.66;4994584;28;20058;-76
2023/07/30 13:38:34;;;;;;;5.18;1.40;;;;;;;20.80;56.41;101054.84;4993810;28;20037;-79
2023/07/30 13:40:59;;;;;;;5.00;1.25;;;;;;;20.93;57.08;101036.84;4992099;28;20034;-78
2023/07/30 13:43:24;;;;;;;4.72;1.15;;;;;;;21.02;55.70;101050.81;4992854;28;20030;-75
2023/07/30 13:45:50;;;;;;;5.60;1.48;;;;;;;21.03;55.23;101042.25;4996784;28;20053;-75
2023/07/30 13:48:19;;;;;;;5.25;1.48;;;;;;;21.21;55.57;101048.94;5013533;28;20069;-79
2023/07/30 13:50:45;;;;;;;4.10;1.48;;;;;;;21.39;55.11;101050.13;5009132;28;20030;-79
2023/07/30 13:53:10;;;;;;;5.32;1.60;;;;;;;21.46;56.23;101044.25;4996166;28;20533;-76
2023/07/30 13:55:35;;;;;;;6.13;1.65;;;;;;;21.52;56.38;101042.31;4996235;28;20436;-76
2023/07/30 13:58:01;;;;;;;6.00;1.67;;;;;;;21.54;55.13;101045.56;4994157;28;20061;-77
2023/07/30 14:00:26;;;;;;;5.95;1.80;;;;;;;21.59;55.34;101035.31;4993466;28;20559;-79
2023/07/30 14:02:51;;;;;;;5.15;1.50;;;;;;;21.55;56.37;101033.44;5013300;28;20041;-78
2023/07/30 14:05:17;;;;;;;7.70;1.73;;;;;;;21.46;56.47;101048.94;5004151;28;20389;-77
2023/07/30 14:07:43;;;;;;;6.45;1.50;;;;;;;21.48;55.82;101043.97;4996014;28;20037;-76
2023/07/30 14:10:09;;;;;;;4.53;1.50;;;;;;;21.31;58.00;101042.50;4997553;28;20035;-79
2023/07/30 14:12:34;;;;;;;5.32;1.75;;;;;;;21.16;56.38;101039.94;4998853;28;20109;-74
2023/07/30 14:14:59;;;;;;;10.13;1.92;;;;;;;20.93;57.71;101034.09;5006366;28;20033;-77
2023/07/30 14:17:25;;;;;;;8.43;2.00;;;;;;;20.83;57.81;101039.69;5006447;28;20103;-75
2023/07/30 14:19:50;;;;;;;5.07;1.80;;;;;;;20.73;59.24;101037.03;5007764;28;20113;-76
2023/07/30 14:22:15;;;;;;;7.18;1.85;;;;;;;20.77;61.91;101038.13;5006866;28;20488;-76
2023/07/30 14:24:43;;;;;;;8.80;1.92;;;;;;;21.08;60.95;101043.31;5009309;28;20083;-75
2023/07/30 14:27:09;;;;;;;4.65;1.50;;;;;;;21.12;61.03;101033.34;5005669;28;20034;-73
2023/07/30 14:29:34;;;;;;;8.10;1.90;;;;;;;21.03;59.54;101030.41;4995418;28;20056;-73
2023/07/30 14:31:59;;;;;;;8.82;1.90;;;;;;;20.94;59.29;101027.50;5010896;28;20029;-73
2023/07/30 14:34:24;;;;;;;7.70;1.90;;;;;;;20.91;62.85;101025.34;4995212;28;20042;-73
2023/07/30 14:36:50;;;;;;;7.25;2.20;;;;;;;20.84;59.33;101022.09;4994967;28;20509;-74
2023/07/30 14:39:15;;;;;;;9.45;2.10;;;;;;;20.78;59.72;101028.75;4995990;28;20537;-74
2023/07/30 14:41:40;;;;;;;7.25;1.88;;;;;;;20.65;57.69;101020.09;5004792;28;20547;-74
2023/07/30 14:44:06;;;;;;;7.32;1.90;;;;;;;20.63;56.79;101010.44;5007070;28;20034;-74
2023/07/30 14:46:31;;;;;;;10.02;2.10;;;;;;;20.59;57.58;101026.69;4997630;28;20030;-76
2023/07/30 14:48:57;;;;;;;7.20;1.90;;;;;;;20.65;57.00;101020.09;5013459;28;20473;-72
2023/07/30 14:51:23;;;;;;;6.10;1.90;;;;;;;20.75;58.41;101016.41;5008906;28;20104;-76
2023/07/30 14:53:48;;;;;;;5.90;1.88;;;;;;;20.86;55.46;101026.22;5004304;28;20373;-75
2023/07/30 14:56:14;;;;;;;7.00;2.15;;;;;;;20.97;55.12;101023.34;5004290;28;20038;-75
2023/07/30 14:58:40;;;;;;;5.15;1.67;;;;;;;21.41;56.52;101020.38;5003837;28;20043;-75
2023/07/30 15:01:06;;;;;;;8.90;1.58;;;;;;;21.84;53.73;101018.75;5001914;28;20076;-75
2023/07/30 15:03:31;;;;;;;6.38;2.10;;;;;;;21.87;53.43;101020.91;4995644;28;20065;-75
2023/07/30 15:05:56;;;;;;;5.68;1.80;;;;;;;21.72;53.74;101010.91;4997892;28;20034;-74
2023/07/30 15:08:22;;;;;;;5.18;1.70;;;;;;;21.76;52.63;101015.53;4994757;28;20057;-74
2023/07/30 15:10:47;;;;;;;7.28;1.80;;;;;;;21.96;51.24;101019.13;4994418;28;20034;-74
2023/07/30 15:13:12;;;;;;;5.25;2.00;;;;;;;22.21;50.16;101008.81;4995297;28;20057;-75
2023/07/30 15:15:38;;;;;;;7.40;1.88;;;;;;;22.37;48.52;101001.97;4998275;28;20160;-73
2023/07/30 15:18:07;;;;;;;6.63;1.83;;;;;;;22.34;48.50;101012.78;5004482;28;20052;-74
2023/07/30 15:20:32;;;;;;;9.77;2.45;;;;;;;22.08;49.12;100997.44;4999569;28;20034;-74
2023/07/30 15:22:58;;;;;;;8.18;2.20;;;;;;;21.94;50.83;101010.34;4996836;28;20057;-74
2023/07/30 15:25:24;;;;;;;6.13;1.83;;;;;;;21.87;51.11;101018.16;4996378;28;20027;-73
2023/07/30 15:27:49;;;;;;;8.18;2.08;;;;;;;21.88;48.22;101009.59;5000847;28;20026;-79
2023/07/30 15:30:15;;;;;;;9.23;2.28;;;;;;;21.76;48.64;101015.53;5002007;28;20108;-73
2023/07/30 15:32:44;;;;;;;7.63;2.28;;;;;;;21.61;48.29;101013.00;5011791;28;20041;-73
2023/07/30 15:35:10;;;;;;;11.30;3.25;;;;;;;21.52;48.19;101021.09;5012283;28;20041;-74
2023/07/30 15:37:36;;;;;;;7.03;2.38;;;;;;;21.62;48.15;101014.63;5004888;28;20031;-76
2023/07/30 15:40:02;;;;;;;8.88;2.30;;;;;;;21.77;47.92;101019.13;5004791;28;20056;-74
2023/07/30 15:42:27;;;;;;;11.75;2.55;;;;;;;21.80;47.46;101020.44;5000493;28;20030;-73
2023/07/30 15:44:52;;;;;;;8.02;2.40;;;;;;;21.66;47.48;101021.16;4993459;28;20022;-73
2023/07/30 15:47:18;;;;;;;5.95;1.90;;;;;;;21.55;48.03;101008.66;5006364;28;20041;-73
2023/07/30 15:49:43;;;;;;;8.32;2.33;;;;;;;21.50;48.70;101014.22;5012457;28;20075;-72
2023/07/30 15:52:08;;;;;;;9.07;2.22;;;;;;;21.41;49.11;101006.59;4998252;28;20038;-73
2023/07/30 15:54:35;;;;;;;10.05;2.25;;;;;;;21.35;51.66;101010.53;5002004;28;20038;-73
2023/07/30 15:57:01;;;;;;;8.05;2.30;;;;;;;21.32;49.43;101022.13;5007175;28;20034;-73
2023/07/30 15:59:27;;;;;;;8.20;2.50;;;;;;;21.24;50.15;101009.84;5007029;28;20080;-81
2023/07/30 16:01:53;;;;;;;7.75;1.83;;;;;;;21.17;50.48;101014.06;5009330;28;20044;-76
2023/07/30 16:04:19;;;;;;;7.82;2.30;;;;;;;21.08;51.44;101018.56;5000742;28;20500;-76
2023/07/30 16:06:44;;;;;;;5.95;2.10;;;;;;;21.01;53.37;101010.63;4999915;28;20105;-74
2023/07/30 16:09:09;;;;;;;8.25;2.67;;;;;;;20.96;51.87;101024.47;5000435;28;20395;-75
2023/07/30 16:11:38;;;;;;;6.57;2.45;;;;;;;20.85;52.56;101029.25;5006411;28;20714;-76
2023/07/30 16:14:03;;;;;;;10.80;2.78;;;;;;;20.76;53.14;101020.81;5005628;28;20034;-77
